Time;durP1;ratioP1;P1;durP2;ratioP2;P2;SDS_P1;SDS_P2;PMS_P1;PMS_P2;Temp;Humidity;BMP_temperature;BMP_pressure;BME280_temperature;BME280_humidity;BME280_pressure;Samples;Min_cycle;Max_cycle;Signal;HPM_P1;HPM_P2
2023/06/06 00:01:29;;;;;;;;;;;;;;;;;;;;;
2023/06/06 00:04:55;;;;;;;;;;;;;;;;;;;;;
2023/06/06 00:08:10;;;;;;;11.68;5.88;;;;;;;;;;4731075;30;20056;-94
2023/06/06 00:10:41;;;;;;;13.40;5.60;;;;;;;;;;4733793;30;20058;-96
2023/06/06 00:13:22;;;;;;;;;;;8.80;99.90;;;;;;4712989;30;20118;-94
2023/06/06 00:16:27;;;;;;;12.63;6.28;;;;;;;;;;4723100;30;19931;-94
2023/06/06 00:18:56;;;;;;;13.77;6.10;;;;;;;;;;4719441;30;20060;-93
2023/06/06 00:21:32;;;;;;;11.48;5.80;;;;;;;;;;4739859;30;20053;-93
2023/06/06 00:24:11;;;;;;;13.75;6.15;;;;;;;;;;4725922;30;20044;-95
2023/06/06 00:26:57;;;;;;;;;;;;;;;;;;;;;
2023/06/06 00:29:45;;;;;;;15.80;8.23;;;;;;;;;;4740434;30;20052;-93
2023/06/06 00:32:26;;;;;;;15.73;7.68;;;;;;;;;;4716479;30;20264;-92
2023/06/06 00:35:13;;;;;;;13.52;7.68;;;;;;;;;;4725634;30;20052;-96
2023/06/06 00:37:39;;;;;;;14.43;8.27;;;;;;;;;;4757572;29;20047;-95
2023/06/06 00:40:09;;;;;;;14.55;8.30;;;;;;;;;;4817801;29;20058;-93
2023/06/06 00:42:48;;;;;;;14.80;8.40;;;;;;;;;;4807104;29;20046;-94
2023/06/06 00:45:21;;;;;;;19.13;9.05;;;;;;;;;;4844093;29;20061;-96
2023/06/06 00:48:14;;;;;;;19.75;9.10;;;;;;;;;;4864708;29;20045;-96
2023/06/06 00:54:52;;;;;;;20.30;9.10;;;;;;;;;;4880354;29;20057;-96
2023/06/06 02:02:31;;;;;;;18.20;7.47;;;;;;;;;;4855260;29;20093;-96
2023/06/06 02:05:19;;;;;;;;;;;;;;;;;;;;;
2023/06/06 02:08:36;;;;;;;15.23;7.80;;;;;;;;;;4789005;29;20940;-96
2023/06/06 02:11:22;;;;;;;;;;;;;;;;;;;;;
2023/06/06 02:14:03;;;;;;;13.55;7.35;;;;;;;;;;4737317;30;20577;-96
2023/06/06 02:17:45;;;;;;;;;;;;;;;;;;;;;
2023/06/06 02:24:24;;;;;;;13.05;6.80;;;;;;;;;;4736819;30;20377;-94
2023/06/06 02:26:59;;;;;;;16.13;7.13;;;;;;;;;;4728329;30;20157;-95
2023/06/06 02:29:29;;;;;;;12.65;6.60;;;;;;;;;;4707419;30;20143;-95
2023/06/06 02:32:17;;;;;;;12.27;7.40;;;;;;;;;;4799335;29;20042;-95
2023/06/06 02:34:44;;;;;;;15.25;7.22;;;;;;;;;;4790766;29;20061;-96
2023/06/06 02:37:49;;;;;;;12.10;6.63;;;;;;;;;;4812941;29;20058;-96
2023/06/06 02:40:18;;;;;;;18.13;7.60;;;;;;;;;;4807161;29;20450;-95
2023/06/06 02:42:47;;;;;;;12.65;7.53;;;;;;;;;;4807803;29;20045;-94
2023/06/06 02:45:35;;;;;;;12.77;6.75;;;;;;;;;;4827131;29;20042;-96
2023/06/06 02:48:45;;;;;;;;;;;;;;;;;;;;;
2023/06/06 02:51:19;;;;;;;11.48;6.68;;;;;;;;;;4804978;29;20065;-95
2023/06/06 02:57:21;;;;;;;12.43;5.30;;;;;;;;;;4806525;29;20050;-94
2023/06/06 03:00:26;;;;;;;;;;;7.30;99.90;;;;;;4755176;29;20122;-95
2023/06/06 03:03:24;;;;;;;14.43;6.85;;;;;;;;;;4809191;29;20440;-94
2023/06/06 03:09:15;;;;;;;13.80;6.65;;;;;;;;;;4826528;29;20049;-94
2023/06/06 03:12:28;;;;;;;15.73;8.57;;;;;;;;;;4808040;29;20710;-94
2023/06/06 03:15:29;;;;;;;12.52;7.38;;;;;;;;;;4748649;30;20051;-94
2023/06/06 03:19:06;;;;;;;;;;;;;;;;;;;;;
2023/06/06 03:21:33;;;;;;;;;;;;;;;;;;;;;
2023/06/06 03:24:39;;;;;;;;;;;;;;;;;;;;;
2023/06/06 03:46:04;;;;;;;;;;;;;;;;;;;;;
2023/06/06 04:00:04;;;;;;;17.15;9.50;;;;;;;;;;4569151;31;20127;-93
2023/06/06 04:03:07;;;;;;;20.80;10.00;;;;;;;;;;4584368;31;20076;-94
2023/06/06 04:09:31;;;;;;;;;;;;;;;;;;;;;
2023/06/06 05:11:41;;;;;;;10.93;5.90;;;13.60;98.90;;;;;;4873246;29;20104;-92
2023/06/06 05:48:46;;;;;;;9.48;4.10;;;16.40;95.10;;;;;;4724646;30;20335;-93
2023/06/06 07:01:03;;;;;;;10.25;4.63;;;32.50;50.20;;;;;;4831042;29;20067;-91
2023/06/06 08:22:40;;;;;;;;;;;;;;;;;;;;;
2023/06/06 08:29:14;;;;;;;6.20;2.70;;;38.90;39.50;;;;;;4794977;29;20066;-87
2023/06/06 08:38:29;;;;;;;7.78;2.47;;;39.40;36.50;;;;;;4806982;29;20054;-87
2023/06/06 08:41:43;;;;;;;10.02;2.35;;;39.40;35.90;;;;;;4785762;29;20056;-87
2023/06/06 08:44:25;;;;;;;8.40;3.22;;;;;;;;;;4793126;29;20540;-86
2023/06/06 08:48:31;;;;;;;;;;;;;;;;;;;;;
2023/06/06 08:50:48;;;;;;;6.18;2.10;;;39.20;36.10;;;;;;4706167;30;20052;-90
2023/06/06 08:57:07;;;;;;;8.38;2.45;;;;;;;;;;4710648;30;20111;-89
2023/06/06 09:10:59;;;;;;;6.80;2.90;;;39.80;36.10;;;;;;4736567;30;20091;-85
2023/06/06 09:25:04;;;;;;;9.48;2.65;;;;;;;;;;4799757;29;20111;-90
2023/06/06 10:04:14;;;;;;;;;;;;;;;;;;;;;
2023/06/06 10:07:22;;;;;;;;;;;39.40;37.60;;;;;;4843281;29;20053;-92
2023/06/06 10:28:36;;;;;;;6.03;2.80;;;;;;;;;;4780024;30;20063;-90
2023/06/06 10:34:43;;;;;;;6.65;2.72;;;;;;;;;;4721786;30;20120;-88
2023/06/06 10:44:46;;;;;;;14.45;4.10;;;;;;;;;;4729205;30;20139;-90
2023/06/06 10:47:37;;;;;;;8.57;3.40;;;;;;;;;;4747461;30;20724;-88
2023/06/06 10:50:12;;;;;;;9.52;3.78;;;;;;;;;;4749478;30;20064;-88
2023/06/06 10:53:05;;;;;;;8.70;3.55;;;;;;;;;;4758085;30;20934;-86
2023/06/06 10:56:17;;;;;;;7.50;2.80;;;;;;;;;;4748399;30;20281;-86
2023/06/06 10:58:46;;;;;;;8.82;3.20;;;;;;;;;;4761853;30;20180;-87
2023/06/06 11:01:22;;;;;;;10.25;2.70;;;;;;;;;;4731119;30;20844;-88
2023/06/06 11:07:18;;;;;;;6.78;3.08;;;;;;;;;;4796618;29;20081;-88
2023/06/06 11:09:50;;;;;;;7.07;3.33;;;;;;;;;;4798534;29;20062;-89
2023/06/06 11:15:55;;;;;;;9.70;3.83;;;26.30;48.60;;;;;;4740667;29;20060;-86
2023/06/06 11:18:40;;;;;;;7.57;3.90;;;25.80;49.40;;;;;;4789392;29;20087;-90
2023/06/06 11:21:19;;;;;;;7.43;3.55;;;25.10;52.20;;;;;;4799018;29;20077;-89
2023/06/06 11:23:45;;;;;;;7.25;3.33;;;;;;;;;;4793755;29;20420;-86
2023/06/06 11:26:14;;;;;;;10.02;4.85;;;;;;;;;;4788619;29;20058;-86
2023/06/06 11:29:05;;;;;;;;;;;;;;;;;;;;;
2023/06/06 11:31:38;;;;;;;10.20;4.03;;;;;;;;;;4803095;29;20054;-87
2023/06/06 11:34:04;;;;;;;11.82;4.57;;;;;;;;;;4806968;29;20054;-88
2023/06/06 11:36:33;;;;;;;5.47;3.00;;;;;;;;;;4810160;29;20050;-91
2023/06/06 11:39:07;;;;;;;9.27;3.90;;;23.70;56.60;;;;;;4799969;29;20513;-87
2023/06/06 11:42:06;;;;;;;12.18;4.10;;;23.60;57.20;;;;;;4796877;29;20046;-87
2023/06/06 11:44:51;;;;;;;9.32;5.43;;;;;;;;;;4813138;29;20133;-88
2023/06/06 11:47:21;;;;;;;10.32;3.78;;;;;;;;;;4802021;29;20053;-87
2023/06/06 11:49:50;;;;;;;8.63;4.30;;;;;;;;;;4792086;29;20573;-91
2023/06/06 11:52:25;;;;;;;12.25;4.32;;;;;;;;;;4802313;29;20130;-87
2023/06/06 11:55:07;;;;;;;13.13;4.35;;;;;;;;;;4803132;29;20050;-88
2023/06/06 11:57:37;;;;;;;7.60;4.75;;;;;;;;;;4806337;29;20123;-88
2023/06/06 12:00:19;;;;;;;11.93;4.50;;;;;;;;;;4811490;29;20053;-88
2023/06/06 12:02:49;;;;;;;11.95;4.32;;;;;;;;;;4793710;29;20137;-89
2023/06/06 12:05:55;;;;;;;12.60;4.78;;;;;;;;;;4777815;29;20110;-90
2023/06/06 12:15:00;;;;;;;12.55;4.50;;;;;;;;;;4746980;30;20250;-90
2023/06/06 12:17:28;;;;;;;9.48;3.97;;;;;;;;;;4790533;29;20053;-88
2023/06/06 12:19:55;;;;;;;7.88;4.18;;;;;;;;;;4789048;29;20053;-88
2023/06/06 12:22:40;;;;;;;10.85;4.40;;;;;;;;;;4786874;29;20481;-88
2023/06/06 12:25:13;;;;;;;9.50;3.83;;;;;;;;;;4783237;29;20138;-88
2023/06/06 12:28:28;;;;;;;10.70;4.00;;;;;;;;;;4797615;29;20053;-87
2023/06/06 12:30:54;;;;;;;9.23;3.38;;;;;;;;;;4786447;29;20096;-88
2023/06/06 12:33:23;;;;;;;13.88;5.35;;;;;;;;;;4782959;29;20502;-89
2023/06/06 12:35:49;;;;;;;12.73;3.78;;;;;;;;;;4790594;29;20415;-91
2023/06/06 12:38:34;;;;;;;6.22;4.03;;;;;;;;;;4791458;29;20034;-90
2023/06/06 12:41:07;;;;;;;9.88;3.83;;;;;;;;;;4803194;29;20046;-90
2023/06/06 12:44:18;;;;;;;11.32;4.07;;;;;;;;;;4811132;29;20050;-94
2023/06/06 13:30:23;;;;;;;12.48;3.60;;;;;;;;;;4833971;29;20486;-89
2023/06/06 13:32:50;;;;;;;8.93;4.05;;;;;;;;;;4810762;29;20058;-89
2023/06/06 13:35:31;;;;;;;11.85;4.40;;;;;;;;;;4830109;29;20062;-91
2023/06/06 13:38:23;;;;;;;10.48;4.25;;;;;;;;;;4764833;30;20670;-91
2023/06/06 13:45:09;;;;;;;11.73;3.97;;;;;;;;;;4750743;30;20054;-87
2023/06/06 13:48:42;;;;;;;;;;;;;;;;;;;;;
2023/06/06 13:56:13;;;;;;;10.05;3.35;;;21.10;64.50;;;;;;4715508;30;20063;-88
2023/06/06 14:09:18;;;;;;;;;;;;;;;;;;;;;
2023/06/06 14:13:00;;;;;;;12.70;3.45;;;20.70;64.50;;;;;;4817059;29;20037;-83
2023/06/06 14:15:56;;;;;;;12.27;3.53;;;20.70;65.50;;;;;;4723976;30;20116;-88
2023/06/06 14:24:57;;;;;;;12.65;4.10;;;20.70;65.60;;;;;;4762115;29;20443;-88
2023/06/06 14:27:45;;;;;;;8.15;3.40;;;20.70;65.50;;;;;;4766233;29;20051;-88
2023/06/06 14:30:18;;;;;;;9.02;3.20;;;20.70;65.70;;;;;;4778585;29;20150;-92
2023/06/06 14:33:47;;;;;;;11.82;3.75;;;20.70;65.70;;;;;;4772921;29;20472;-89
2023/06/06 14:36:25;;;;;;;;;;;;;;;;;;;;;
2023/06/06 14:39:58;;;;;;;12.77;3.67;;;20.50;65.70;;;;;;4762025;30;20118;-89
2023/06/06 14:42:29;;;;;;;10.75;4.10;;;20.40;65.90;;;;;;4697360;30;20029;-91
2023/06/06 14:48:05;;;;;;;;;;;;;;;;;;;;;
2023/06/06 14:54:50;;;;;;;7.82;2.85;;;20.20;66.50;;;;;;4767184;30;20062;-87
2023/06/06 14:57:25;;;;;;;12.38;3.55;;;;;;;;;;4734373;30;20226;-86
2023/06/06 15:00:42;;;;;;;12.23;3.65;;;20.10;66.20;;;;;;4741169;29;20055;-83
2023/06/06 15:03:23;;;;;;;10.77;3.60;;;;;;;;;;4784806;29;20161;-87
2023/06/06 15:05:49;;;;;;;8.40;3.00;;;;;;;;;;4790234;29;20358;-88
2023/06/06 15:08:16;;;;;;;8.75;3.13;;;;;;;;;;4784799;29;20054;-85
2023/06/06 15:10:42;;;;;;;9.88;3.40;;;;;;;;;;4782703;29;20111;-86
2023/06/06 15:13:13;;;;;;;11.20;3.15;;;;;;;;;;4781587;29;20046;-86
2023/06/06 15:15:42;;;;;;;11.82;3.17;;;;;;;;;;4782023;29;20054;-85
2023/06/06 15:18:09;;;;;;;6.70;2.97;;;;;;;;;;4781556;29;20051;-85
2023/06/06 15:20:40;;;;;;;8.68;3.38;;;;;;;;;;4784691;29;20050;-84
2023/06/06 15:23:07;;;;;;;11.18;3.58;;;;;;;;;;4786859;29;20062;-85
2023/06/06 15:25:33;;;;;;;12.82;3.88;;;;;;;;;;4807150;29;20078;-86
2023/06/06 15:27:59;;;;;;;10.73;4.93;;;;;;;;;;4798803;29;20053;-86
2023/06/06 15:30:25;;;;;;;9.50;3.70;;;;;;;;;;4804886;29;20108;-86
2023/06/06 15:32:52;;;;;;;8.30;3.38;;;;;;;;;;4803270;29;20045;-88
2023/06/06 15:35:18;;;;;;;11.13;3.42;;;;;;;;;;4811347;29;20145;-87
2023/06/06 15:37:44;;;;;;;8.80;2.97;;;;;;;;;;4796298;29;20077;-85
2023/06/06 15:40:11;;;;;;;12.85;3.17;;;;;;;;;;4802120;29;20047;-86
2023/06/06 15:42:37;;;;;;;10.20;3.17;;;;;;;;;;4784575;29;20050;-87
2023/06/06 15:45:03;;;;;;;8.93;2.85;;;;;;;;;;4795769;29;20046;-86
2023/06/06 15:47:29;;;;;;;13.80;3.67;;;;;;;;;;4810454;29;20542;-85
2023/06/06 15:49:56;;;;;;;9.65;3.38;;;;;;;;;;4802816;29;20690;-86
2023/06/06 15:52:22;;;;;;;9.32;3.63;;;;;;;;;;4807127;29;20051;-86
2023/06/06 15:54:48;;;;;;;8.27;3.53;;;;;;;;;;4808584;29;20414;-87
2023/06/06 15:57:14;;;;;;;8.40;3.30;;;;;;;;;;4804600;29;20038;-85
2023/06/06 15:59:40;;;;;;;9.15;3.13;;;;;;;;;;4797779;29;20054;-86
2023/06/06 16:02:07;;;;;;;8.52;3.40;;;;;;;;;;4798370;29;20505;-87
2023/06/06 16:04:33;;;;;;;10.93;4.10;;;;;;;;;;4798708;29;20069;-87
2023/06/06 16:06:59;;;;;;;11.93;3.65;;;;;;;;;;4784448;29;21532;-86
2023/06/06 16:09:26;;;;;;;7.20;3.03;;;;;;;;;;4805921;29;20202;-87
2023/06/06 16:11:55;;;;;;;9.55;3.05;;;;;;;;;;4808693;29;20273;-89
2023/06/06 16:14:22;;;;;;;9.93;3.83;;;;;;;;;;4803381;29;20803;-85
2023/06/06 16:16:48;;;;;;;8.13;3.67;;;;;;;;;;4814327;29;20156;-86
2023/06/06 16:19:14;;;;;;;10.75;2.92;;;;;;;;;;4815505;29;20039;-87
2023/06/06 16:21:41;;;;;;;10.02;3.17;;;;;;;;;;4812340;29;20053;-85
2023/06/06 16:24:07;;;;;;;10.70;3.70;;;;;;;;;;4812129;29;20513;-88
2023/06/06 16:26:33;;;;;;;12.10;3.25;;;;;;;;;;4823257;29;20651;-86
2023/06/06 16:28:59;;;;;;;6.78;3.13;;;;;;;;;;4811098;29;20119;-87
2023/06/06 16:31:26;;;;;;;11.38;3.40;;;;;;;;;;4808634;29;20046;-87
2023/06/06 16:33:52;;;;;;;11.93;3.92;;;;;;;;;;4806568;29;20042;-85
2023/06/06 16:36:18;;;;;;;6.28;2.92;;;;;;;;;;4813447;29;20053;-85
2023/06/06 16:38:44;;;;;;;8.65;3.15;;;;;;;;;;4813562;29;20042;-88
2023/06/06 16:41:10;;;;;;;8.23;2.67;;;;;;;;;;4820143;29;20105;-87
2023/06/06 16:43:36;;;;;;;6.57;2.65;;;;;;;;;;4814975;29;20112;-88
2023/06/06 16:46:02;;;;;;;10.80;3.70;;;;;;;;;;4796915;29;20515;-86
2023/06/06 16:48:50;;;;;;;9.20;2.85;;;;;;;;;;4808958;29;20599;-88
2023/06/06 16:51:20;;;;;;;9.48;3.13;;;;;;;;;;4814685;29;20054;-86
2023/06/06 16:53:46;;;;;;;8.07;2.92;;;;;;;;;;4805135;29;20050;-88
2023/06/06 16:56:12;;;;;;;8.63;3.28;;;;;;;;;;4797680;29;20050;-87
2023/06/06 16:58:38;;;;;;;8.30;3.63;;;;;;;;;;4815583;29;20045;-87
2023/06/06 17:01:07;;;;;;;10.07;4.40;;;17.60;71.60;;;;;;4810980;29;20046;-88
2023/06/06 17:03:36;;;;;;;5.68;2.83;;;18.00;75.30;;;;;;4798224;29;20038;-87
2023/06/06 17:06:05;;;;;;;9.88;3.75;;;;;;;;;;4795791;29;20126;-87
2023/06/06 17:15:59;;;;;;;12.23;3.72;;;;;;;;;;4804034;29;20055;-90
2023/06/06 17:18:34;;;;;;;7.95;3.35;;;;;;;;;;4764642;30;20580;-90
2023/06/06 17:21:27;;;;;;;7.82;2.90;;;;;;;;;;4789028;29;20554;-85
2023/06/06 17:23:55;;;;;;;11.30;3.97;;;;;;;;;;4796342;29;20531;-86
2023/06/06 17:26:21;;;;;;;7.88;3.33;;;16.90;73.20;;;;;;4800702;29;20053;-87
2023/06/06 17:28:51;;;;;;;10.10;3.63;;;;;;;;;;4773012;29;20039;-88
2023/06/06 17:31:19;;;;;;;7.85;4.22;;;;;;;;;;4781929;29;20051;-87
2023/06/06 17:33:48;;;;;;;8.27;2.97;;;;;;;;;;4782648;29;20050;-87
2023/06/06 17:36:15;;;;;;;13.82;4.00;;;;;;;;;;4786680;29;20051;-91
2023/06/06 17:48:28;;;;;;;6.90;2.70;;;;;;;;;;4813124;29;20058;-84
2023/06/06 18:00:47;;;;;;;11.95;3.78;;;;;;;;;;4798032;29;20059;-85
2023/06/06 18:03:49;;;;;;;8.20;2.88;;;;;;;;;;4796169;29;20494;-87
2023/06/06 18:06:52;;;;;;;12.15;4.45;;;;;;;;;;4775150;29;20063;-85
2023/06/06 18:09:30;;;;;;;9.20;3.83;;;;;;;;;;4745032;30;20420;-85
2023/06/06 18:12:30;;;;;;;11.57;3.67;;;;;;;;;;4769746;30;20064;-86
2023/06/06 18:19:01;;;;;;;8.48;3.35;;;;;;;;;;4745952;30;20083;-85
2023/06/06 18:21:32;;;;;;;12.13;3.70;;;;;;;;;;4777264;30;20048;-87
2023/06/06 18:23:58;;;;;;;10.23;4.07;;;;;;;;;;4770153;29;20114;-86
2023/06/06 18:26:26;;;;;;;10.18;3.85;;;;;;;;;;4769941;30;20134;-84
2023/06/06 18:28:53;;;;;;;10.65;3.65;;;;;;;;;;4782455;29;20106;-88
2023/06/06 18:31:19;;;;;;;11.57;4.10;;;;;;;;;;4750662;30;20071;-86
2023/06/06 18:33:45;;;;;;;8.00;3.90;;;;;;;;;;4785643;29;20058;-87
2023/06/06 18:36:12;;;;;;;7.90;3.33;;;;;;;;;;4786591;29;20090;-87
2023/06/06 18:38:45;;;;;;;12.63;3.63;;;;;;;;;;4747203;29;20043;-88
2023/06/06 18:41:11;;;;;;;11.15;4.07;;;;;;;;;;4792615;29;20088;-86
2023/06/06 18:43:37;;;;;;;8.68;4.40;;;;;;;;;;4817089;29;20517;-86
2023/06/06 18:46:13;;;;;;;11.68;3.92;;;;;;;;;;4810066;29;20054;-87
2023/06/06 18:48:42;;;;;;;8.93;4.00;;;;;;;;;;4816784;29;20603;-87
2023/06/06 18:54:06;;;;;;;15.25;6.75;;;;;;;;;;4794323;29;20658;-88
2023/06/06 18:56:35;;;;;;;11.48;4.55;;;;;;;;;;4815787;29;20046;-88
2023/06/06 18:59:33;;;;;;;12.38;4.43;;;;;;;;;;4805005;29;20046;-87
2023/06/06 19:02:00;;;;;;;15.15;6.20;;;;;;;;;;4802969;29;20053;-87
2023/06/06 19:04:26;;;;;;;13.10;5.15;;;;;;;;;;4804802;29;20050;-87
2023/06/06 19:06:53;;;;;;;10.88;5.93;;;;;;;;;;4813609;29;20097;-86
2023/06/06 19:09:19;;;;;;;13.35;5.05;;;;;;;;;;4803608;29;20780;-87
2023/06/06 19:11:45;;;;;;;10.52;5.00;;;;;;;;;;4803165;29;20043;-87
2023/06/06 19:14:12;;;;;;;17.85;5.45;;;;;;;;;;4811667;29;20050;-87
2023/06/06 19:16:38;;;;;;;15.25;4.38;;;;;;;;;;4794144;29;20447;-88
2023/06/06 19:19:04;;;;;;;15.48;4.47;;;;;;;;;;4801155;29;20058;-87
2023/06/06 19:21:31;;;;;;;10.50;5.15;;;;;;;;;;4806310;29;20053;-86
2023/06/06 19:23:57;;;;;;;9.38;4.07;;;;;;;;;;4809257;29;20818;-86
2023/06/06 19:26:25;;;;;;;10.20;4.20;;;;;;;;;;4820368;29;20057;-86
2023/06/06 19:28:51;;;;;;;14.70;4.72;;;;;;;;;;4817475;29;20054;-86
2023/06/06 19:31:17;;;;;;;7.60;3.97;;;;;;;;;;4803456;29;20390;-86
2023/06/06 19:33:43;;;;;;;11.18;4.85;;;;;;;;;;4804217;29;20119;-86
2023/06/06 19:36:10;;;;;;;13.27;4.30;;;;;;;;;;4816811;29;20069;-88
2023/06/06 19:38:36;;;;;;;10.30;4.32;;;;;;;;;;4806018;29;20057;-88
2023/06/06 19:41:11;;;;;;;13.10;4.10;;;;;;;;;;4798996;29;20049;-88
2023/06/06 19:43:46;;;;;;;11.27;3.83;;;;;;;;;;4803845;29;20042;-90
2023/06/06 19:46:19;;;;;;;13.95;4.07;;;;;;;;;;4801026;29;20114;-89
2023/06/06 19:48:46;;;;;;;11.98;4.15;;;;;;;;;;4811910;29;20096;-89
2023/06/06 19:51:35;;;;;;;15.70;4.10;;;;;;;;;;4806732;29;20078;-89
2023/06/06 19:54:07;;;;;;;16.23;6.38;;;;;;;;;;4789762;29;20058;-89
2023/06/06 19:56:45;;;;;;;16.88;4.15;;;;;;;;;;4812886;29;20099;-90
2023/06/06 19:59:27;;;;;;;13.48;4.35;;;;;;;;;;4809240;29;20121;-90
2023/06/06 20:01:56;;;;;;;8.70;3.85;;;;;;;;;;4813191;29;20053;-90
2023/06/06 20:04:25;;;;;;;10.07;3.47;;;;;;;;;;4821010;29;20060;-89
2023/06/06 20:07:32;;;;;;;12.55;3.55;;;;;;;;;;4826359;29;20050;-89
2023/06/06 20:10:21;;;;;;;11.82;4.00;;;;;;;;;;4812782;29;20049;-89
2023/06/06 20:12:53;;;;;;;11.85;3.97;;;;;;;;;;4817806;29;20060;-90
2023/06/06 20:15:26;;;;;;;9.23;4.07;;;11.50;92.40;;;;;;4810224;29;20622;-89
2023/06/06 20:17:58;;;;;;;13.05;4.60;;;;;;;;;;4818344;29;20053;-90
2023/06/06 20:20:41;;;;;;;9.52;4.15;;;;;;;;;;4810469;29;20049;-90
2023/06/06 20:23:42;;;;;;;8.80;3.75;;;11.40;93.40;;;;;;4824303;29;20623;-90
2023/06/06 20:29:15;;;;;;;9.80;3.40;;;;;;;;;;4798095;29;20058;-90
2023/06/06 20:32:03;;;;;;;13.15;4.18;;;;;;;;;;4796736;29;20066;-90
2023/06/06 20:34:29;;;;;;;8.80;4.13;;;;;;;;;;4788415;29;20050;-90
2023/06/06 20:37:11;;;;;;;12.18;4.43;;;;;;;;;;4782150;29;20505;-90
2023/06/06 20:40:18;;;;;;;11.13;3.60;;;;;;;;;;4789346;29;20753;-89
2023/06/06 20:43:26;;;;;;;9.00;5.22;;;10.90;95.20;;;;;;4802467;29;20050;-89
2023/06/06 20:46:30;;;;;;;10.40;3.95;;;10.80;95.30;;;;;;4769800;30;20055;-91
2023/06/06 20:49:07;;;;;;;11.20;4.60;;;;;;;;;;4772036;30;20066;-91
2023/06/06 20:54:36;;;;;;;10.85;4.43;;;;;;;;;;4763904;30;20043;-87
2023/06/06 20:57:04;;;;;;;10.10;4.30;;;;;;;;;;4766365;30;20151;-87
2023/06/06 20:59:33;;;;;;;10.00;3.95;;;;;;;;;;4767931;30;20077;-89
2023/06/06 21:02:06;;;;;;;15.43;5.05;;;;;;;;;;4767826;30;20055;-88
2023/06/06 21:04:34;;;;;;;8.40;3.78;;;;;;;;;;4767573;30;20544;-88
2023/06/06 21:07:07;;;;;;;20.00;5.95;;;;;;;;;;4765730;30;20108;-88
2023/06/06 21:09:36;;;;;;;9.18;3.90;;;;;;;;;;4771140;29;20088;-90
2023/06/06 21:12:03;;;;;;;12.27;5.38;;;;;;;;;;4792962;29;20137;-88
2023/06/06 21:14:30;;;;;;;12.70;5.05;;;;;;;;;;4791500;29;20103;-89
2023/06/06 21:16:59;;;;;;;12.27;4.40;;;;;;;;;;4793552;29;20066;-88
2023/06/06 21:19:26;;;;;;;15.65;5.38;;;;;;;;;;4793786;29;20061;-89
2023/06/06 21:21:54;;;;;;;14.35;5.03;;;;;;;;;;4777489;29;20420;-88
2023/06/06 21:24:20;;;;;;;10.38;4.95;;;;;;;;;;4785058;29;20066;-88
2023/06/06 21:26:46;;;;;;;17.30;6.05;;;;;;;;;;4816176;29;20046;-88
2023/06/06 21:29:16;;;;;;;12.50;5.10;;;;;;;;;;4813061;29;20047;-89
2023/06/06 21:31:42;;;;;;;11.65;4.88;;;;;;;;;;4812468;29;20054;-87
2023/06/06 21:34:11;;;;;;;10.57;5.75;;;;;;;;;;4809632;29;20057;-88
2023/06/06 21:36:37;;;;;;;12.93;5.57;;;;;;;;;;4794519;29;20051;-89
2023/06/06 21:39:04;;;;;;;11.93;4.32;;;;;;;;;;4808519;29;20054;-89
2023/06/06 21:41:30;;;;;;;12.68;5.50;;;;;;;;;;4813875;29;20133;-88
2023/06/06 21:43:56;;;;;;;14.77;5.78;;;;;;;;;;4794026;29;20049;-88
2023/06/06 21:46:22;;;;;;;13.95;5.47;;;;;;;;;;4814205;29;20776;-89
2023/06/06 21:48:48;;;;;;;15.90;5.07;;;;;;;;;;4807547;29;20081;-88
2023/06/06 21:51:15;;;;;;;13.10;5.50;;;;;;;;;;4812404;29;20053;-89
2023/06/06 21:53:41;;;;;;;11.75;5.30;;;;;;;;;;4804121;29;20570;-89
2023/06/06 21:56:07;;;;;;;14.25;5.93;;;;;;;;;;4808207;29;20160;-89
2023/06/06 21:58:35;;;;;;;15.07;5.47;;;;;;;;;;4798668;29;20049;-88
2023/06/06 22:01:02;;;;;;;11.43;4.78;;;;;;;;;;4812458;29;20110;-89
2023/06/06 22:03:28;;;;;;;13.15;4.88;;;9.40;99.20;;;;;;4808357;29;20110;-90
2023/06/06 22:05:55;;;;;;;15.63;5.50;;;;;;;;;;4810901;29;20050;-92
2023/06/06 22:08:21;;;;;;;11.30;5.07;;;;;;;;;;4814220;29;20091;-88
2023/06/06 22:10:47;;;;;;;17.85;6.13;;;;;;;;;;4809071;29;20137;-89
2023/06/06 22:13:13;;;;;;;14.63;6.95;;;;;;;;;;4804771;29;20052;-88
2023/06/06 22:15:42;;;;;;;14.35;5.60;;;;;;;;;;4807025;29;20937;-88
2023/06/06 22:18:09;;;;;;;13.00;5.22;;;;;;;;;;4811549;29;20642;-88
2023/06/06 22:20:35;;;;;;;13.25;5.90;;;;;;;;;;4811690;29;20073;-89
2023/06/06 22:23:01;;;;;;;17.58;7.15;;;;;;;;;;4818895;29;20048;-88
2023/06/06 22:25:27;;;;;;;15.13;5.72;;;;;;;;;;4807136;29;20095;-89
2023/06/06 22:27:53;;;;;;;12.15;5.63;;;;;;;;;;4793388;29;20057;-88
2023/06/06 22:30:20;;;;;;;13.38;4.85;;;;;;;;;;4795666;29;20089;-88
2023/06/06 22:32:46;;;;;;;10.40;5.13;;;;;;;;;;4791559;29;20046;-89
2023/06/06 22:35:12;;;;;;;15.15;5.82;;;;;;;;;;4793036;29;20054;-89
2023/06/06 22:37:38;;;;;;;10.18;6.00;;;;;;;;;;4801266;29;20046;-87
2023/06/06 22:40:04;;;;;;;15.15;5.80;;;;;;;;;;4807763;29;20477;-89
2023/06/06 22:42:30;;;;;;;10.65;4.95;;;;;;;;;;4794795;29;20050;-89
2023/06/06 22:44:56;;;;;;;12.43;5.97;;;;;;;;;;4798650;29;20051;-88
2023/06/06 22:47:23;;;;;;;13.15;6.78;;;;;;;;;;4792983;29;20061;-88
2023/06/06 22:49:49;;;;;;;15.68;6.03;;;;;;;;;;4806212;29;20247;-87
2023/06/06 22:52:15;;;;;;;14.93;6.10;;;;;;;;;;4784637;29;20051;-88
2023/06/06 22:54:41;;;;;;;15.35;6.53;;;;;;;;;;4805151;29;20083;-88
2023/06/06 22:57:07;;;;;;;18.92;6.75;;;;;;;;;;4795317;29;20053;-88
2023/06/06 22:59:33;;;;;;;16.75;6.63;;;;;;;;;;4812850;29;20054;-89
2023/06/06 23:02:00;;;;;;;17.92;6.50;;;;;;;;;;4798613;29;20063;-88
2023/06/06 23:04:26;;;;;;;14.18;6.70;;;;;;;;;;4814891;29;20050;-88
2023/06/06 23:06:52;;;;;;;9.77;5.70;;;;;;;;;;4802723;29;20049;-88
2023/06/06 23:09:24;;;;;;;11.15;6.22;;;;;;;;;;4799373;29;20055;-88
2023/06/06 23:12:11;;;;;;;10.80;6.85;;;;;;;;;;4816708;29;20051;-88
2023/06/06 23:14:47;;;;;;;16.13;5.78;;;;;;;;;;4810683;29;20055;-88
2023/06/06 23:17:13;;;;;;;9.60;5.97;;;;;;;;;;4811923;29;20116;-88
2023/06/06 23:19:42;;;;;;;14.68;6.35;;;;;;;;;;4788140;29;20042;-88
2023/06/06 23:25:30;;;;;;;18.95;6.82;;;;;;;;;;4797663;29;20058;-88
2023/06/06 23:27:56;;;;;;;11.73;6.18;;;;;;;;;;4786789;29;20046;-87
2023/06/06 23:30:22;;;;;;;12.82;6.60;;;;;;;;;;4789733;29;20046;-88
2023/06/06 23:32:48;;;;;;;10.73;6.32;;;;;;;;;;4785048;29;20038;-88
2023/06/06 23:35:14;;;;;;;14.00;6.82;;;;;;;;;;4779187;29;20039;-88
2023/06/06 23:37:41;;;;;;;10.38;6.65;;;;;;;;;;4771376;29;20126;-87
2023/06/06 23:40:07;;;;;;;11.07;6.50;;;;;;;;;;4789329;29;20102;-88
2023/06/06 23:42:33;;;;;;;12.88;7.07;;;;;;;;;;4769573;29;20058;-88
2023/06/06 23:44:59;;;;;;;14.43;6.82;;;;;;;;;;4790839;29;20540;-88
2023/06/06 23:47:26;;;;;;;17.85;6.97;;;;;;;;;;4782665;29;20039;-87
2023/06/06 23:49:52;;;;;;;14.65;6.75;;;;;;;;;;4781385;29;20085;-88
2023/06/06 23:52:18;;;;;;;12.82;6.55;;;;;;;;;;4788229;29;20509;-87
2023/06/06 23:54:44;;;;;;;16.67;7.40;;;;;;;;;;4782566;29;20092;-87
2023/06/06 23:57:11;;;;;;;17.58;7.32;;;;;;;;;;4781779;29;20043;-87
2023/06/06 23:59:37;;;;;;;14.68;7.30;;;;;;;;;;4785286;29;20042;-87
